createdAt,value
2023-03-29T00:02:50.428Z,64.49
2023-03-29T00:07:54.468Z,64.43
2023-03-29T00:12:57.448Z,64.19
2023-03-29T00:18:00.441Z,64.35
2023-03-29T00:23:03.313Z,64.84
2023-03-29T00:28:06.285Z,64.99
2023-03-29T00:33:09.255Z,64.99
2023-03-29T00:38:12.198Z,65.24
2023-03-29T00:43:16.073Z,65.45
2023-03-29T00:48:24.571Z,65.74
2023-03-29T00:53:36.218Z,66.30
2023-03-29T00:59:13.894Z,66.62
2023-03-29T01:04:40.890Z,67.11
2023-03-29T01:09:48.935Z,67.40
2023-03-29T01:14:56.747Z,67.37
2023-03-29T01:20:13.912Z,67.51
2023-03-29T01:25:53.830Z,67.42
2023-03-29T01:31:04.258Z,67.33
2023-03-29T01:36:27.388Z,67.50
2023-03-29T01:41:42.681Z,67.28
2023-03-29T01:46:55.372Z,67.59
2023-03-29T01:52:06.880Z,67.50
2023-03-29T01:57:12.044Z,68.21
2023-03-29T02:02:18.176Z,67.86
2023-03-29T02:07:27.200Z,67.59
2023-03-29T02:12:30.100Z,67.54
2023-03-29T02:17:33.104Z,67.07
2023-03-29T02:22:55.190Z,67.79
2023-03-29T02:27:58.734Z,67.22
2023-03-29T02:33:11.029Z,67.07
2023-03-29T02:38:15.037Z,67.37
2023-03-29T02:43:19.437Z,67.14
2023-03-29T02:48:26.690Z,67.17
2023-03-29T02:53:40.606Z,67.32
2023-03-29T02:58:43.652Z,67.35
2023-03-29T03:03:48.301Z,67.39
2023-03-29T03:08:51.248Z,67.10
2023-03-29T03:13:54.082Z,66.81
2023-03-29T03:18:56.988Z,66.76
2023-03-29T03:24:18.673Z,66.35
2023-03-29T03:29:22.038Z,66.06
2023-03-29T03:34:45.095Z,66.12
2023-03-29T03:40:12.211Z,65.99
2023-03-29T03:45:16.041Z,65.78
2023-03-29T03:50:38.474Z,65.29
2023-03-29T03:55:42.992Z,65.36
2023-03-29T04:00:51.701Z,65.57
2023-03-29T04:06:11.939Z,65.44
2023-03-29T04:11:34.900Z,65.25
2023-03-29T04:16:56.547Z,64.88
2023-03-29T04:22:18.268Z,64.51
2023-03-29T04:27:21.803Z,64.20
2023-03-29T04:32:25.002Z,64.13
2023-03-29T04:37:48.561Z,64.50
2023-03-29T04:42:52.928Z,64.16
2023-03-29T04:47:59.827Z,64.89
2023-03-29T04:53:03.797Z,64.09
2023-03-29T04:58:08.119Z,64.03
2023-03-29T05:03:14.752Z,63.28
2023-03-29T05:08:40.107Z,62.75
2023-03-29T05:13:49.263Z,62.31
2023-03-29T05:18:52.975Z,61.67
2023-03-29T05:23:56.156Z,60.45
2023-03-29T05:29:19.327Z,59.62
2023-03-29T05:34:28.783Z,58.43
2023-03-29T05:39:37.888Z,58.21
2023-03-29T05:44:41.998Z,58.10
2023-03-29T05:49:52.906Z,57.33
2023-03-29T05:54:57.935Z,56.79
2023-03-29T06:00:02.221Z,57.22
2023-03-29T06:05:23.593Z,56.78
2023-03-29T06:10:44.284Z,56.38
2023-03-29T06:16:01.415Z,55.61
2023-03-29T06:21:05.533Z,55.54
2023-03-29T06:26:09.004Z,54.77
2023-03-29T06:31:13.361Z,54.89
2023-03-29T06:36:17.011Z,53.96
2023-03-29T06:41:20.168Z,53.72
2023-03-29T06:46:38.362Z,53.50
2023-03-29T06:51:43.637Z,53.57
2023-03-29T06:56:47.551Z,53.29
2023-03-29T07:01:55.536Z,52.80
2023-03-29T07:07:22.811Z,52.72
2023-03-29T07:12:38.274Z,52.79
2023-03-29T07:17:42.059Z,52.18
2023-03-29T07:22:47.405Z,51.66
2023-03-29T07:27:52.318Z,50.94
2023-03-29T07:32:57.766Z,51.13
2023-03-29T07:38:09.879Z,50.75
2023-03-29T07:43:21.925Z,50.60
2023-03-29T07:48:25.567Z,50.50
2023-03-29T07:53:34.140Z,49.65
2023-03-29T07:58:40.881Z,49.83
2023-03-29T08:03:44.293Z,49.45
2023-03-29T08:08:47.713Z,48.96
2023-03-29T08:13:52.954Z,48.07
2023-03-29T08:19:01.816Z,47.62
2023-03-29T08:24:21.110Z,47.58
2023-03-29T08:29:29.529Z,46.82
2023-03-29T08:34:32.338Z,46.43
2023-03-29T08:39:51.184Z,46.29
2023-03-29T08:45:43.916Z,47.04
2023-03-29T08:50:53.012Z,47.08
2023-03-29T08:55:59.941Z,46.37
2023-03-29T09:01:22.958Z,46.31
2023-03-29T09:06:28.845Z,46.86
2023-03-29T09:11:47.746Z,46.31
2023-03-29T09:16:56.420Z,45.69
2023-03-29T09:22:31.684Z,45.58
2023-03-29T09:27:50.343Z,45.23
2023-03-29T09:33:13.962Z,45.17
2023-03-29T09:38:33.246Z,43.70
2023-03-29T09:43:41.599Z,42.00
2023-03-29T09:48:50.964Z,40.45
2023-03-29T09:53:57.253Z,40.35
2023-03-29T09:59:28.367Z,40.50
2023-03-29T10:04:32.229Z,41.73
2023-03-29T10:09:36.998Z,40.99
2023-03-29T10:14:54.826Z,41.84
2023-03-29T10:20:20.064Z,41.16
2023-03-29T10:25:29.041Z,41.82
2023-03-29T10:30:37.437Z,41.77
2023-03-29T10:35:44.387Z,40.91
2023-03-29T10:41:12.360Z,40.44
2023-03-29T10:46:21.168Z,40.61
2023-03-29T10:51:25.554Z,40.09
2023-03-29T10:56:42.076Z,39.13
2023-03-29T11:02:00.239Z,38.71
2023-03-29T11:07:33.046Z,38.77
2023-03-29T11:12:57.949Z,37.96
2023-03-29T11:18:12.643Z,36.63
2023-03-29T11:23:41.701Z,37.04
2023-03-29T11:28:50.436Z,37.48
2023-03-29T11:34:18.345Z,37.72
2023-03-29T11:39:30.594Z,37.20
2023-03-29T11:44:34.625Z,36.98
2023-03-29T11:50:13.612Z,37.18
2023-03-29T11:55:26.722Z,37.63
2023-03-29T12:00:52.232Z,36.46
2023-03-29T12:06:07.651Z,36.43
2023-03-29T12:11:23.113Z,35.40
2023-03-29T12:16:37.583Z,35.46
2023-03-29T12:21:42.989Z,35.29
2023-03-29T12:27:01.716Z,36.00
2023-03-29T12:32:25.928Z,35.94
2023-03-29T12:38:04.440Z,36.11
2023-03-29T12:43:43.581Z,36.53
2023-03-29T12:48:57.971Z,36.26
2023-03-29T12:54:17.228Z,36.36
2023-03-29T12:59:23.175Z,36.30
2023-03-29T13:05:01.541Z,36.31
2023-03-29T13:10:10.437Z,36.14
2023-03-29T13:15:17.074Z,35.91
2023-03-29T13:20:37.558Z,36.02
2023-03-29T13:26:01.237Z,36.63
2023-03-29T13:31:08.459Z,36.92
2023-03-29T13:36:56.928Z,37.23
2023-03-29T13:42:19.970Z,37.83
2023-03-29T13:47:58.254Z,38.12
2023-03-29T13:53:15.417Z,37.85
2023-03-29T13:58:41.916Z,38.35
2023-03-29T14:03:48.764Z,38.91
2023-03-29T14:08:52.435Z,39.54
2023-03-29T14:14:15.002Z,39.72
2023-03-29T14:19:25.008Z,40.33
2023-03-29T14:24:51.935Z,40.89
2023-03-29T14:29:54.774Z,41.19
2023-03-29T14:34:58.258Z,41.68
2023-03-29T14:40:21.115Z,41.97
2023-03-29T14:45:43.358Z,42.27
2023-03-29T14:50:47.131Z,42.32
2023-03-29T14:55:54.046Z,42.70
2023-03-29T15:00:57.134Z,42.77
2023-03-29T15:06:04.058Z,43.64
2023-03-29T15:11:15.747Z,43.97
2023-03-29T15:16:22.781Z,44.63
2023-03-29T15:21:31.968Z,45.42
2023-03-29T15:26:36.870Z,46.17
2023-03-29T15:31:42.282Z,47.02
2023-03-29T15:36:46.794Z,47.49
2023-03-29T15:41:53.104Z,47.93
2023-03-29T15:46:58.019Z,49.11
2023-03-29T15:52:00.887Z,49.29
2023-03-29T15:57:07.863Z,50.02
2023-03-29T16:02:21.815Z,50.45
2023-03-29T16:07:24.716Z,50.87
2023-03-29T16:12:27.512Z,51.25
2023-03-29T16:17:30.323Z,51.65
2023-03-29T16:22:33.219Z,52.10
2023-03-29T16:27:36.316Z,52.29
2023-03-29T16:32:39.298Z,52.50
2023-03-29T16:37:42.374Z,52.86
2023-03-29T16:42:45.479Z,53.39
2023-03-29T16:47:49.034Z,53.28
2023-03-29T16:52:52.797Z,53.12
2023-03-29T16:57:55.379Z,53.25
2023-03-29T17:03:02.003Z,53.52
2023-03-29T17:08:05.109Z,53.71
2023-03-29T17:13:08.592Z,53.52
2023-03-29T17:18:12.387Z,53.36
2023-03-29T17:23:15.693Z,53.67
2023-03-29T17:28:20.452Z,53.70
2023-03-29T17:33:26.300Z,53.64
2023-03-29T17:38:31.407Z,53.67
2023-03-29T17:43:34.485Z,53.51
2023-03-29T17:48:38.082Z,53.61
2023-03-29T17:53:40.975Z,53.13
2023-03-29T17:58:43.848Z,53.19
2023-03-29T18:03:48.472Z,53.43
2023-03-29T18:08:53.374Z,53.28
2023-03-29T18:14:14.595Z,53.58
2023-03-29T18:19:17.480Z,53.33
2023-03-29T18:24:20.299Z,53.86
2023-03-29T18:29:24.114Z,53.83
2023-03-29T18:34:45.533Z,53.84
2023-03-29T18:39:48.991Z,53.90
2023-03-29T18:44:52.152Z,54.26
2023-03-29T18:49:55.499Z,54.13
2023-03-29T18:54:58.396Z,54.49
2023-03-29T19:05:55.558Z,54.60
2023-03-29T19:11:02.953Z,54.87
2023-03-29T19:16:06.362Z,54.65
2023-03-29T19:21:09.325Z,54.88
2023-03-29T19:26:12.390Z,55.13
2023-03-29T19:31:15.359Z,55.16
2023-03-29T19:36:18.345Z,54.97
2023-03-29T19:41:21.429Z,55.24
2023-03-29T19:46:24.431Z,55.51
2023-03-29T19:51:28.084Z,55.33
2023-03-29T19:56:30.771Z,55.21
2023-03-29T20:01:34.097Z,55.80
2023-03-29T20:06:37.112Z,55.74
2023-03-29T20:11:58.371Z,55.56
2023-03-29T20:17:01.194Z,56.10
2023-03-29T20:22:04.841Z,56.19
2023-03-29T20:27:07.785Z,56.76
2023-03-29T20:32:10.956Z,56.70
2023-03-29T20:37:14.895Z,56.82
2023-03-29T20:42:18.299Z,56.82
2023-03-29T20:47:21.374Z,57.42
2023-03-29T20:52:25.145Z,57.99
2023-03-29T20:57:29.279Z,58.42
2023-03-29T21:02:33.310Z,58.80
2023-03-29T21:07:36.805Z,59.27
2023-03-29T21:12:40.361Z,60.01
2023-03-29T21:17:43.206Z,59.84
2023-03-29T21:22:46.311Z,60.78
2023-03-29T21:27:49.467Z,60.59
2023-03-29T21:32:52.534Z,61.81
2023-03-29T21:37:55.632Z,61.48
2023-03-29T21:42:58.688Z,62.13
2023-03-29T21:48:01.775Z,62.02
2023-03-29T21:53:05.108Z,62.63
2023-03-29T21:58:08.297Z,62.79
2023-03-29T22:03:11.280Z,62.79
2023-03-29T22:08:14.150Z,63.54
2023-03-29T22:13:16.956Z,63.16
2023-03-29T22:18:21.040Z,64.17
2023-03-29T22:23:25.053Z,64.18
2023-03-29T22:28:27.872Z,63.75
2023-03-29T22:33:32.891Z,63.45
2023-03-29T22:38:35.853Z,63.88
2023-03-29T22:43:39.118Z,64.37
2023-03-29T22:48:42.169Z,64.41
2023-03-29T22:53:47.290Z,64.07
2023-03-29T22:58:50.206Z,64.45
2023-03-29T23:03:53.085Z,64.42
2023-03-29T23:08:56.189Z,65.01
2023-03-29T23:13:59.376Z,65.10
2023-03-29T23:19:02.903Z,64.79
2023-03-29T23:24:06.929Z,64.86
2023-03-29T23:29:09.825Z,65.62
2023-03-29T23:34:13.695Z,65.95
2023-03-29T23:39:16.600Z,66.29
2023-03-29T23:44:19.410Z,66.04
2023-03-29T23:49:23.002Z,66.08
2023-03-29T23:54:26.404Z,66.36
2023-03-29T23:59:31.370Z,65.87
